Central Nebraska Regional Airport
KGRI : now visible

Airfield :











YOU CAN JOIN US ON...

 
LOGIN :

Register | Disclaimer

   EN    FR    IT 

 









Legend :    VFR   Marginal VFR   IFR   Intensive IFR   Very Intensive IFR
Visi :
Ceiling :
>= 8 km
>= 3000ft
5 to 8 km
1000 to 3000 ft
1500m to 5 km
500 to 1000 ft
800 to 1500m
200 to 500 ft
< 800m
< 200 ft
Symbols :   Thunderstorms  Fog  Heavy snow  Heavy precipitations  Wind > 20 kt






- Airport Elevation : 1847 ft
- IATA code : GRI


KGRI - Central Nebraska Regional

CURRENT METAR :
  • 191653Z 29004KT 10SM SCT100 28/16 A2996 RMK AO2 SLP133 T02780161

EXPIRED METARs :
  • 191553Z 29003KT 10SM FEW110 25/17 A2996 RMK AO2 SLP137 T02500172

TAF KGRI
Valid from the 19 at 18:00 until the 20 at 18:00 UTC


191721Z 1918/2018 33009KT P6SM SCT100
FM200100 36006KT P6SM FEW150
FM201300 35010KT P6SM SCT025
KZMP FIR / North America



MET'MAP, your aeronautical weather chart ! - Copyright ORBIFLY December 2007 - Disclaimer

ORBIFLY MET'MAP TEAM :

Programming & Development : Alexandra Zaïnal
Original concept : Baudouin d'Aumeries
Technical & hardware support : Manuel Goepfert
Assistance : Marc-Olivier Méhu




SOURCES & CREDITS :

   NOAA       Earth
Advisory